sensor_id;sensor_type;location;lat;lon;timestamp;P1;durP1;ratioP1;P2;durP2;ratioP2
4553;SDS011;2289;48.316;15.174;2023-07-13T00:02:12;6.83;;;2.70;;
4553;SDS011;2289;48.316;15.174;2023-07-13T00:04:42;8.23;;;2.90;;
4553;SDS011;2289;48.316;15.174;2023-07-13T00:07:11;3.13;;;2.87;;
4553;SDS011;2289;48.316;15.174;2023-07-13T00:09:41;4.07;;;2.60;;
4553;SDS011;2289;48.316;15.174;2023-07-13T00:12:21;12.23;;;3.10;;
4553;SDS011;2289;48.316;15.174;2023-07-13T00:14:51;3.50;;;2.80;;
4553;SDS011;2289;48.316;15.174;2023-07-13T00:17:39;2.80;;;2.27;;
4553;SDS011;2289;48.316;15.174;2023-07-13T00:20:28;4.40;;;2.63;;
4553;SDS011;2289;48.316;15.174;2023-07-13T00:23:15;6.10;;;3.43;;
4553;SDS011;2289;48.316;15.174;2023-07-13T00:26:05;5.37;;;2.53;;
4553;SDS011;2289;48.316;15.174;2023-07-13T00:28:53;4.80;;;3.10;;
4553;SDS011;2289;48.316;15.174;2023-07-13T00:31:40;3.13;;;2.73;;
4553;SDS011;2289;48.316;15.174;2023-07-13T00:34:29;3.00;;;2.63;;
4553;SDS011;2289;48.316;15.174;2023-07-13T00:37:18;2.93;;;2.07;;
4553;SDS011;2289;48.316;15.174;2023-07-13T00:40:07;5.17;;;2.17;;
4553;SDS011;2289;48.316;15.174;2023-07-13T00:42:38;11.93;;;3.27;;
4553;SDS011;2289;48.316;15.174;2023-07-13T00:46:02;4.60;;;2.70;;
4553;SDS011;2289;48.316;15.174;2023-07-13T00:48:16;7.93;;;2.60;;
4553;SDS011;2289;48.316;15.174;2023-07-13T00:50:48;3.27;;;2.70;;
4553;SDS011;2289;48.316;15.174;2023-07-13T00:53:20;3.60;;;2.50;;
4553;SDS011;2289;48.316;15.174;2023-07-13T00:55:50;2.43;;;2.07;;
4553;SDS011;2289;48.316;15.174;2023-07-13T00:58:19;2.73;;;1.87;;
4553;SDS011;2289;48.316;15.174;2023-07-13T01:00:48;5.00;;;2.07;;
4553;SDS011;2289;48.316;15.174;2023-07-13T01:03:17;5.23;;;2.60;;
4553;SDS011;2289;48.316;15.174;2023-07-13T01:06:05;8.63;;;3.07;;
4553;SDS011;2289;48.316;15.174;2023-07-13T01:08:56;4.23;;;2.23;;
4553;SDS011;2289;48.316;15.174;2023-07-13T01:11:45;3.33;;;2.13;;
4553;SDS011;2289;48.316;15.174;2023-07-13T01:14:14;3.20;;;2.57;;
4553;SDS011;2289;48.316;15.174;2023-07-13T01:16:44;2.60;;;2.40;;
4553;SDS011;2289;48.316;15.174;2023-07-13T01:19:18;3.30;;;2.70;;
4553;SDS011;2289;48.316;15.174;2023-07-13T01:22:06;2.90;;;2.07;;
4553;SDS011;2289;48.316;15.174;2023-07-13T01:24:36;2.50;;;2.30;;
4553;SDS011;2289;48.316;15.174;2023-07-13T01:27:05;5.70;;;2.97;;
4553;SDS011;2289;48.316;15.174;2023-07-13T01:29:36;13.43;;;3.10;;
4553;SDS011;2289;48.316;15.174;2023-07-13T01:32:09;3.83;;;3.13;;
4553;SDS011;2289;48.316;15.174;2023-07-13T01:34:39;4.30;;;3.43;;
4553;SDS011;2289;48.316;15.174;2023-07-13T01:37:11;5.30;;;3.63;;
4553;SDS011;2289;48.316;15.174;2023-07-13T01:39:40;4.13;;;3.30;;
4553;SDS011;2289;48.316;15.174;2023-07-13T01:42:08;11.77;;;3.50;;
4553;SDS011;2289;48.316;15.174;2023-07-13T01:44:39;7.50;;;3.47;;
4553;SDS011;2289;48.316;15.174;2023-07-13T01:47:08;5.13;;;3.30;;
4553;SDS011;2289;48.316;15.174;2023-07-13T01:49:38;5.00;;;3.67;;
4553;SDS011;2289;48.316;15.174;2023-07-13T01:52:08;5.43;;;4.67;;
4553;SDS011;2289;48.316;15.174;2023-07-13T01:54:38;5.83;;;3.30;;
4553;SDS011;2289;48.316;15.174;2023-07-13T01:57:07;4.30;;;3.50;;
4553;SDS011;2289;48.316;15.174;2023-07-13T01:59:36;7.53;;;4.30;;
4553;SDS011;2289;48.316;15.174;2023-07-13T02:02:05;5.27;;;2.80;;
4553;SDS011;2289;48.316;15.174;2023-07-13T02:04:36;4.00;;;3.30;;
4553;SDS011;2289;48.316;15.174;2023-07-13T02:07:05;7.03;;;3.07;;
4553;SDS011;2289;48.316;15.174;2023-07-13T02:09:34;4.63;;;3.33;;
4553;SDS011;2289;48.316;15.174;2023-07-13T02:12:08;6.80;;;3.20;;
4553;SDS011;2289;48.316;15.174;2023-07-13T02:14:37;4.07;;;3.50;;
4553;SDS011;2289;48.316;15.174;2023-07-13T02:17:06;3.40;;;3.10;;
4553;SDS011;2289;48.316;15.174;2023-07-13T02:19:37;8.50;;;3.77;;
4553;SDS011;2289;48.316;15.174;2023-07-13T02:22:06;7.30;;;4.47;;
4553;SDS011;2289;48.316;15.174;2023-07-13T02:24:35;3.73;;;3.50;;
4553;SDS011;2289;48.316;15.174;2023-07-13T02:27:05;6.03;;;3.70;;
4553;SDS011;2289;48.316;15.174;2023-07-13T02:29:38;3.90;;;3.57;;
4553;SDS011;2289;48.316;15.174;2023-07-13T02:32:07;5.60;;;4.73;;
4553;SDS011;2289;48.316;15.174;2023-07-13T02:34:40;5.30;;;3.90;;
4553;SDS011;2289;48.316;15.174;2023-07-13T02:37:10;4.70;;;4.30;;
4553;SDS011;2289;48.316;15.174;2023-07-13T02:39:43;6.50;;;4.10;;
4553;SDS011;2289;48.316;15.174;2023-07-13T02:42:20;4.70;;;4.30;;
4553;SDS011;2289;48.316;15.174;2023-07-13T02:44:50;5.47;;;4.97;;
4553;SDS011;2289;48.316;15.174;2023-07-13T02:47:19;4.50;;;3.70;;
4553;SDS011;2289;48.316;15.174;2023-07-13T02:49:48;4.90;;;4.40;;
4553;SDS011;2289;48.316;15.174;2023-07-13T02:52:18;8.07;;;5.17;;
4553;SDS011;2289;48.316;15.174;2023-07-13T02:54:46;6.53;;;4.50;;
4553;SDS011;2289;48.316;15.174;2023-07-13T02:57:15;4.00;;;3.50;;
4553;SDS011;2289;48.316;15.174;2023-07-13T02:59:44;4.57;;;4.17;;
4553;SDS011;2289;48.316;15.174;2023-07-13T03:02:15;5.00;;;3.30;;
4553;SDS011;2289;48.316;15.174;2023-07-13T03:04:44;5.87;;;4.07;;
4553;SDS011;2289;48.316;15.174;2023-07-13T03:07:13;3.43;;;3.23;;
4553;SDS011;2289;48.316;15.174;2023-07-13T03:09:42;3.87;;;2.90;;
4553;SDS011;2289;48.316;15.174;2023-07-13T03:12:11;7.80;;;4.10;;
4553;SDS011;2289;48.316;15.174;2023-07-13T03:14:40;4.07;;;3.57;;
4553;SDS011;2289;48.316;15.174;2023-07-13T03:17:09;3.60;;;3.30;;
4553;SDS011;2289;48.316;15.174;2023-07-13T03:19:39;4.00;;;2.57;;
4553;SDS011;2289;48.316;15.174;2023-07-13T03:22:08;4.80;;;3.67;;
4553;SDS011;2289;48.316;15.174;2023-07-13T03:24:37;3.97;;;3.03;;
4553;SDS011;2289;48.316;15.174;2023-07-13T03:27:06;4.40;;;3.00;;
4553;SDS011;2289;48.316;15.174;2023-07-13T03:29:35;6.17;;;2.40;;
4553;SDS011;2289;48.316;15.174;2023-07-13T03:32:05;2.93;;;2.53;;
4553;SDS011;2289;48.316;15.174;2023-07-13T03:34:34;2.60;;;2.40;;
4553;SDS011;2289;48.316;15.174;2023-07-13T03:37:06;3.63;;;2.77;;
4553;SDS011;2289;48.316;15.174;2023-07-13T03:39:35;5.63;;;2.63;;
4553;SDS011;2289;48.316;15.174;2023-07-13T03:42:04;3.60;;;3.30;;
4553;SDS011;2289;48.316;15.174;2023-07-13T03:44:34;4.30;;;2.70;;
4553;SDS011;2289;48.316;15.174;2023-07-13T03:47:03;4.67;;;2.80;;
4553;SDS011;2289;48.316;15.174;2023-07-13T03:49:35;3.63;;;2.70;;
4553;SDS011;2289;48.316;15.174;2023-07-13T03:52:04;5.47;;;2.70;;
4553;SDS011;2289;48.316;15.174;2023-07-13T03:54:35;7.13;;;3.03;;
4553;SDS011;2289;48.316;15.174;2023-07-13T03:57:04;2.80;;;2.60;;
4553;SDS011;2289;48.316;15.174;2023-07-13T03:59:34;2.60;;;2.40;;
4553;SDS011;2289;48.316;15.174;2023-07-13T04:02:03;2.83;;;2.53;;
4553;SDS011;2289;48.316;15.174;2023-07-13T04:04:32;4.27;;;3.10;;
4553;SDS011;2289;48.316;15.174;2023-07-13T04:07:01;3.40;;;3.10;;
4553;SDS011;2289;48.316;15.174;2023-07-13T04:09:32;2.63;;;2.43;;
4553;SDS011;2289;48.316;15.174;2023-07-13T04:12:00;7.23;;;2.83;;
4553;SDS011;2289;48.316;15.174;2023-07-13T04:14:29;4.23;;;3.23;;
4553;SDS011;2289;48.316;15.174;2023-07-13T04:16:58;5.60;;;3.50;;
4553;SDS011;2289;48.316;15.174;2023-07-13T04:19:27;7.33;;;3.50;;
4553;SDS011;2289;48.316;15.174;2023-07-13T04:21:56;5.80;;;3.43;;
4553;SDS011;2289;48.316;15.174;2023-07-13T04:24:25;5.43;;;3.57;;
4553;SDS011;2289;48.316;15.174;2023-07-13T04:26:56;8.00;;;3.00;;
4553;SDS011;2289;48.316;15.174;2023-07-13T04:29:26;4.73;;;3.00;;
4553;SDS011;2289;48.316;15.174;2023-07-13T04:31:55;6.83;;;3.10;;
4553;SDS011;2289;48.316;15.174;2023-07-13T04:34:24;4.77;;;3.27;;
4553;SDS011;2289;48.316;15.174;2023-07-13T04:36:53;4.10;;;3.23;;
4553;SDS011;2289;48.316;15.174;2023-07-13T04:39:22;9.73;;;3.50;;
4553;SDS011;2289;48.316;15.174;2023-07-13T04:41:50;6.90;;;3.20;;
4553;SDS011;2289;48.316;15.174;2023-07-13T04:44:20;3.80;;;3.33;;
4553;SDS011;2289;48.316;15.174;2023-07-13T04:46:50;20.43;;;3.93;;
4553;SDS011;2289;48.316;15.174;2023-07-13T04:49:19;3.63;;;3.03;;
4553;SDS011;2289;48.316;15.174;2023-07-13T04:51:48;3.17;;;2.87;;
4553;SDS011;2289;48.316;15.174;2023-07-13T04:54:18;4.90;;;4.40;;
4553;SDS011;2289;48.316;15.174;2023-07-13T04:56:47;4.77;;;3.17;;
4553;SDS011;2289;48.316;15.174;2023-07-13T04:59:16;4.03;;;3.07;;
4553;SDS011;2289;48.316;15.174;2023-07-13T05:01:46;3.10;;;2.90;;
4553;SDS011;2289;48.316;15.174;2023-07-13T05:04:15;4.53;;;3.33;;
4553;SDS011;2289;48.316;15.174;2023-07-13T05:06:44;4.10;;;3.70;;
4553;SDS011;2289;48.316;15.174;2023-07-13T05:09:13;4.90;;;3.30;;
4553;SDS011;2289;48.316;15.174;2023-07-13T05:11:42;5.67;;;2.90;;
4553;SDS011;2289;48.316;15.174;2023-07-13T05:14:11;3.33;;;3.03;;
4553;SDS011;2289;48.316;15.174;2023-07-13T05:16:41;3.50;;;2.80;;
4553;SDS011;2289;48.316;15.174;2023-07-13T05:19:11;3.73;;;3.43;;
4553;SDS011;2289;48.316;15.174;2023-07-13T05:21:40;4.67;;;3.13;;
4553;SDS011;2289;48.316;15.174;2023-07-13T05:24:09;4.60;;;3.17;;
4553;SDS011;2289;48.316;15.174;2023-07-13T05:26:51;5.20;;;3.60;;
4553;SDS011;2289;48.316;15.174;2023-07-13T05:29:20;4.87;;;3.20;;
4553;SDS011;2289;48.316;15.174;2023-07-13T05:31:49;3.50;;;3.20;;
4553;SDS011;2289;48.316;15.174;2023-07-13T05:34:21;3.67;;;3.20;;
4553;SDS011;2289;48.316;15.174;2023-07-13T05:36:50;5.07;;;3.63;;
4553;SDS011;2289;48.316;15.174;2023-07-13T05:39:19;8.70;;;5.73;;
4553;SDS011;2289;48.316;15.174;2023-07-13T05:41:48;10.73;;;8.10;;
4553;SDS011;2289;48.316;15.174;2023-07-13T05:44:16;10.53;;;7.17;;
4553;SDS011;2289;48.316;15.174;2023-07-13T05:46:45;6.13;;;5.47;;
4553;SDS011;2289;48.316;15.174;2023-07-13T05:49:14;5.63;;;4.10;;
4553;SDS011;2289;48.316;15.174;2023-07-13T05:51:44;5.10;;;4.60;;
4553;SDS011;2289;48.316;15.174;2023-07-13T05:54:13;4.83;;;4.40;;
4553;SDS011;2289;48.316;15.174;2023-07-13T05:56:42;4.20;;;3.80;;
4553;SDS011;2289;48.316;15.174;2023-07-13T05:59:11;4.97;;;3.77;;
4553;SDS011;2289;48.316;15.174;2023-07-13T06:01:40;4.60;;;4.20;;
4553;SDS011;2289;48.316;15.174;2023-07-13T06:04:10;3.90;;;3.37;;
4553;SDS011;2289;48.316;15.174;2023-07-13T06:06:39;4.13;;;3.77;;
4553;SDS011;2289;48.316;15.174;2023-07-13T06:09:09;4.67;;;3.90;;
4553;SDS011;2289;48.316;15.174;2023-07-13T06:11:38;4.70;;;3.70;;
4553;SDS011;2289;48.316;15.174;2023-07-13T06:14:07;3.60;;;3.30;;
4553;SDS011;2289;48.316;15.174;2023-07-13T06:16:36;5.13;;;3.73;;
4553;SDS011;2289;48.316;15.174;2023-07-13T06:19:07;3.67;;;3.37;;
4553;SDS011;2289;48.316;15.174;2023-07-13T06:21:36;5.43;;;4.57;;
4553;SDS011;2289;48.316;15.174;2023-07-13T06:24:04;7.90;;;5.33;;
4553;SDS011;2289;48.316;15.174;2023-07-13T06:26:34;8.63;;;4.80;;
4553;SDS011;2289;48.316;15.174;2023-07-13T06:29:03;6.53;;;4.10;;
4553;SDS011;2289;48.316;15.174;2023-07-13T06:31:32;4.20;;;3.70;;
4553;SDS011;2289;48.316;15.174;2023-07-13T06:34:01;5.10;;;3.60;;
4553;SDS011;2289;48.316;15.174;2023-07-13T06:36:30;3.73;;;3.43;;
4553;SDS011;2289;48.316;15.174;2023-07-13T06:38:59;6.50;;;4.00;;
4553;SDS011;2289;48.316;15.174;2023-07-13T06:41:28;5.70;;;3.20;;
4553;SDS011;2289;48.316;15.174;2023-07-13T06:43:59;4.13;;;3.27;;
4553;SDS011;2289;48.316;15.174;2023-07-13T06:46:28;3.90;;;2.90;;
4553;SDS011;2289;48.316;15.174;2023-07-13T06:48:57;8.57;;;4.17;;
4553;SDS011;2289;48.316;15.174;2023-07-13T06:51:26;4.00;;;3.17;;
4553;SDS011;2289;48.316;15.174;2023-07-13T06:53:55;3.20;;;2.90;;
4553;SDS011;2289;48.316;15.174;2023-07-13T06:56:24;4.17;;;3.03;;
4553;SDS011;2289;48.316;15.174;2023-07-13T06:58:53;3.33;;;2.80;;
4553;SDS011;2289;48.316;15.174;2023-07-13T07:01:23;3.27;;;2.97;;
4553;SDS011;2289;48.316;15.174;2023-07-13T07:03:52;4.60;;;3.17;;
4553;SDS011;2289;48.316;15.174;2023-07-13T07:06:22;5.77;;;3.20;;
4553;SDS011;2289;48.316;15.174;2023-07-13T07:08:52;2.30;;;2.10;;
4553;SDS011;2289;48.316;15.174;2023-07-13T07:11:22;3.80;;;2.50;;
4553;SDS011;2289;48.316;15.174;2023-07-13T07:13:52;3.10;;;2.83;;
4553;SDS011;2289;48.316;15.174;2023-07-13T07:16:24;3.97;;;3.27;;
4553;SDS011;2289;48.316;15.174;2023-07-13T07:18:53;2.80;;;2.33;;
4553;SDS011;2289;48.316;15.174;2023-07-13T07:21:22;2.57;;;2.37;;
4553;SDS011;2289;48.316;15.174;2023-07-13T07:23:51;2.50;;;2.30;;
4553;SDS011;2289;48.316;15.174;2023-07-13T07:26:20;5.40;;;2.73;;
4553;SDS011;2289;48.316;15.174;2023-07-13T07:28:54;6.30;;;2.70;;
4553;SDS011;2289;48.316;15.174;2023-07-13T07:31:27;3.60;;;3.30;;
4553;SDS011;2289;48.316;15.174;2023-07-13T07:33:58;3.60;;;2.90;;
4553;SDS011;2289;48.316;15.174;2023-07-13T07:36:27;3.70;;;3.20;;
4553;SDS011;2289;48.316;15.174;2023-07-13T07:38:59;4.50;;;3.30;;
4553;SDS011;2289;48.316;15.174;2023-07-13T07:41:28;3.90;;;3.23;;
4553;SDS011;2289;48.316;15.174;2023-07-13T07:44:00;3.43;;;3.10;;
4553;SDS011;2289;48.316;15.174;2023-07-13T07:46:32;4.20;;;3.40;;
4553;SDS011;2289;48.316;15.174;2023-07-13T07:49:03;5.47;;;3.20;;
4553;SDS011;2289;48.316;15.174;2023-07-13T07:51:32;3.70;;;3.40;;
4553;SDS011;2289;48.316;15.174;2023-07-13T07:54:01;4.07;;;3.67;;
4553;SDS011;2289;48.316;15.174;2023-07-13T07:56:31;4.63;;;3.50;;
4553;SDS011;2289;48.316;15.174;2023-07-13T07:59:03;5.20;;;3.80;;
4553;SDS011;2289;48.316;15.174;2023-07-13T08:01:36;4.80;;;3.63;;
4553;SDS011;2289;48.316;15.174;2023-07-13T08:04:08;6.67;;;3.17;;
4553;SDS011;2289;48.316;15.174;2023-07-13T08:06:57;4.00;;;3.40;;
4553;SDS011;2289;48.316;15.174;2023-07-13T08:09:29;4.17;;;3.20;;
4553;SDS011;2289;48.316;15.174;2023-07-13T08:11:58;4.90;;;3.53;;
4553;SDS011;2289;48.316;15.174;2023-07-13T08:14:30;5.00;;;3.77;;
4553;SDS011;2289;48.316;15.174;2023-07-13T08:17:20;4.67;;;3.23;;
4553;SDS011;2289;48.316;15.174;2023-07-13T08:19:48;4.40;;;3.30;;
4553;SDS011;2289;48.316;15.174;2023-07-13T08:22:17;3.63;;;3.33;;
4553;SDS011;2289;48.316;15.174;2023-07-13T08:24:46;6.93;;;4.20;;
4553;SDS011;2289;48.316;15.174;2023-07-13T08:27:22;6.93;;;3.57;;
4553;SDS011;2289;48.316;15.174;2023-07-13T08:29:51;7.03;;;4.00;;
4553;SDS011;2289;48.316;15.174;2023-07-13T08:32:22;4.60;;;4.20;;
4553;SDS011;2289;48.316;15.174;2023-07-13T08:34:51;5.13;;;4.10;;
4553;SDS011;2289;48.316;15.174;2023-07-13T08:37:21;6.17;;;4.47;;
4553;SDS011;2289;48.316;15.174;2023-07-13T08:39:51;4.77;;;4.27;;
4553;SDS011;2289;48.316;15.174;2023-07-13T08:42:23;6.73;;;4.17;;
4553;SDS011;2289;48.316;15.174;2023-07-13T08:45:02;6.77;;;4.00;;
4553;SDS011;2289;48.316;15.174;2023-07-13T08:47:37;8.57;;;4.33;;
4553;SDS011;2289;48.316;15.174;2023-07-13T08:50:12;5.70;;;5.20;;
4553;SDS011;2289;48.316;15.174;2023-07-13T08:52:44;8.63;;;5.27;;
4553;SDS011;2289;48.316;15.174;2023-07-13T08:55:15;8.30;;;4.77;;
4553;SDS011;2289;48.316;15.174;2023-07-13T08:57:46;6.73;;;4.93;;
4553;SDS011;2289;48.316;15.174;2023-07-13T09:00:17;6.03;;;4.60;;
4553;SDS011;2289;48.316;15.174;2023-07-13T09:02:48;6.87;;;5.07;;
4553;SDS011;2289;48.316;15.174;2023-07-13T09:05:22;6.20;;;5.53;;
4553;SDS011;2289;48.316;15.174;2023-07-13T09:08:01;18.93;;;7.73;;
4553;SDS011;2289;48.316;15.174;2023-07-13T09:10:40;6.33;;;5.70;;
4553;SDS011;2289;48.316;15.174;2023-07-13T09:13:13;6.80;;;5.90;;
4553;SDS011;2289;48.316;15.174;2023-07-13T09:15:48;6.50;;;5.73;;
4553;SDS011;2289;48.316;15.174;2023-07-13T09:18:21;5.90;;;5.40;;
4553;SDS011;2289;48.316;15.174;2023-07-13T09:20:56;16.70;;;7.67;;
4553;SDS011;2289;48.316;15.174;2023-07-13T09:23:27;6.70;;;6.00;;
4553;SDS011;2289;48.316;15.174;2023-07-13T09:26:00;7.23;;;5.80;;
4553;SDS011;2289;48.316;15.174;2023-07-13T09:28:33;7.53;;;6.83;;
4553;SDS011;2289;48.316;15.174;2023-07-13T09:31:06;6.80;;;5.00;;
4553;SDS011;2289;48.316;15.174;2023-07-13T09:33:41;6.83;;;4.80;;
4553;SDS011;2289;48.316;15.174;2023-07-13T09:36:20;8.20;;;5.83;;
4553;SDS011;2289;48.316;15.174;2023-07-13T09:38:56;5.30;;;4.80;;
4553;SDS011;2289;48.316;15.174;2023-07-13T09:41:28;5.50;;;5.00;;
4553;SDS011;2289;48.316;15.174;2023-07-13T09:44:11;5.90;;;4.47;;
4553;SDS011;2289;48.316;15.174;2023-07-13T09:46:43;6.33;;;5.20;;
4553;SDS011;2289;48.316;15.174;2023-07-13T09:49:17;6.27;;;5.63;;
4553;SDS011;2289;48.316;15.174;2023-07-13T09:51:46;5.30;;;4.80;;
4553;SDS011;2289;48.316;15.174;2023-07-13T09:54:18;5.50;;;5.10;;
4553;SDS011;2289;48.316;15.174;2023-07-13T09:56:49;6.60;;;6.00;;
4553;SDS011;2289;48.316;15.174;2023-07-13T09:59:23;9.63;;;6.23;;
4553;SDS011;2289;48.316;15.174;2023-07-13T10:01:55;7.93;;;6.57;;
4553;SDS011;2289;48.316;15.174;2023-07-13T10:04:29;10.83;;;6.33;;
4553;SDS011;2289;48.316;15.174;2023-07-13T10:07:07;6.30;;;5.30;;
4553;SDS011;2289;48.316;15.174;2023-07-13T10:09:54;5.07;;;4.57;;
4553;SDS011;2289;48.316;15.174;2023-07-13T10:12:23;6.27;;;5.63;;
4553;SDS011;2289;48.316;15.174;2023-07-13T10:14:53;7.07;;;6.20;;
4553;SDS011;2289;48.316;15.174;2023-07-13T10:17:43;6.90;;;6.13;;
4553;SDS011;2289;48.316;15.174;2023-07-13T10:20:14;11.50;;;5.97;;
4553;SDS011;2289;48.316;15.174;2023-07-13T10:22:45;11.07;;;7.17;;
4553;SDS011;2289;48.316;15.174;2023-07-13T10:25:19;6.47;;;5.87;;
4553;SDS011;2289;48.316;15.174;2023-07-13T10:27:52;9.37;;;5.20;;
4553;SDS011;2289;48.316;15.174;2023-07-13T10:30:22;10.43;;;5.67;;
4553;SDS011;2289;48.316;15.174;2023-07-13T10:32:57;9.57;;;6.37;;
4553;SDS011;2289;48.316;15.174;2023-07-13T10:35:59;5.60;;;5.00;;
4553;SDS011;2289;48.316;15.174;2023-07-13T10:38:36;8.40;;;5.30;;
4553;SDS011;2289;48.316;15.174;2023-07-13T10:41:05;5.90;;;4.93;;
4553;SDS011;2289;48.316;15.174;2023-07-13T10:43:39;6.17;;;5.60;;
4553;SDS011;2289;48.316;15.174;2023-07-13T10:46:10;7.73;;;5.90;;
4553;SDS011;2289;48.316;15.174;2023-07-13T10:48:40;6.80;;;4.57;;
4553;SDS011;2289;48.316;15.174;2023-07-13T10:51:12;13.10;;;4.90;;
4553;SDS011;2289;48.316;15.174;2023-07-13T10:53:43;5.30;;;4.87;;
4553;SDS011;2289;48.316;15.174;2023-07-13T10:56:22;6.37;;;5.17;;
4553;SDS011;2289;48.316;15.174;2023-07-13T10:59:05;6.83;;;5.63;;
4553;SDS011;2289;48.316;15.174;2023-07-13T11:01:46;5.03;;;4.63;;
4553;SDS011;2289;48.316;15.174;2023-07-13T11:04:19;7.40;;;5.63;;
4553;SDS011;2289;48.316;15.174;2023-07-13T11:06:50;9.80;;;6.33;;
4553;SDS011;2289;48.316;15.174;2023-07-13T11:09:35;7.47;;;5.60;;
4553;SDS011;2289;48.316;15.174;2023-07-13T11:12:07;7.00;;;5.03;;
4553;SDS011;2289;48.316;15.174;2023-07-13T11:14:42;6.73;;;4.63;;
4553;SDS011;2289;48.316;15.174;2023-07-13T11:17:33;5.40;;;4.30;;
4553;SDS011;2289;48.316;15.174;2023-07-13T11:20:18;6.03;;;5.30;;
4553;SDS011;2289;48.316;15.174;2023-07-13T11:23:06;6.50;;;5.80;;
4553;SDS011;2289;48.316;15.174;2023-07-13T11:25:37;5.90;;;4.33;;
4553;SDS011;2289;48.316;15.174;2023-07-13T11:28:17;10.50;;;5.30;;
4553;SDS011;2289;48.316;15.174;2023-07-13T11:30:58;5.70;;;4.57;;
4553;SDS011;2289;48.316;15.174;2023-07-13T11:33:49;8.40;;;5.20;;
4553;SDS011;2289;48.316;15.174;2023-07-13T11:36:21;6.70;;;3.90;;
4553;SDS011;2289;48.316;15.174;2023-07-13T11:38:57;7.00;;;5.03;;
4553;SDS011;2289;48.316;15.174;2023-07-13T11:41:31;8.07;;;5.30;;
4553;SDS011;2289;48.316;15.174;2023-07-13T11:44:06;6.50;;;3.73;;
4553;SDS011;2289;48.316;15.174;2023-07-13T11:46:43;4.13;;;3.83;;
4553;SDS011;2289;48.316;15.174;2023-07-13T11:49:17;5.23;;;4.73;;
4553;SDS011;2289;48.316;15.174;2023-07-13T11:51:50;6.00;;;4.93;;
4553;SDS011;2289;48.316;15.174;2023-07-13T11:54:26;7.23;;;4.50;;
4553;SDS011;2289;48.316;15.174;2023-07-13T11:56:57;6.77;;;4.30;;
4553;SDS011;2289;48.316;15.174;2023-07-13T11:59:29;7.87;;;4.80;;
4553;SDS011;2289;48.316;15.174;2023-07-13T12:01:59;5.40;;;4.90;;
4553;SDS011;2289;48.316;15.174;2023-07-13T12:04:30;6.60;;;4.67;;
4553;SDS011;2289;48.316;15.174;2023-07-13T12:07:05;7.47;;;4.87;;
4553;SDS011;2289;48.316;15.174;2023-07-13T12:09:37;5.30;;;4.40;;
4553;SDS011;2289;48.316;15.174;2023-07-13T12:12:10;5.90;;;5.10;;
4553;SDS011;2289;48.316;15.174;2023-07-13T12:14:41;8.90;;;4.53;;
4553;SDS011;2289;48.316;15.174;2023-07-13T12:17:11;4.70;;;4.40;;
4553;SDS011;2289;48.316;15.174;2023-07-13T12:19:43;9.03;;;4.50;;
4553;SDS011;2289;48.316;15.174;2023-07-13T12:22:13;6.73;;;3.73;;
4553;SDS011;2289;48.316;15.174;2023-07-13T12:24:44;6.67;;;4.70;;
4553;SDS011;2289;48.316;15.174;2023-07-13T12:27:18;9.87;;;4.77;;
4553;SDS011;2289;48.316;15.174;2023-07-13T12:29:50;4.93;;;4.43;;
4553;SDS011;2289;48.316;15.174;2023-07-13T12:32:21;5.03;;;4.57;;
4553;SDS011;2289;48.316;15.174;2023-07-13T12:34:51;5.67;;;4.70;;
4553;SDS011;2289;48.316;15.174;2023-07-13T12:37:21;4.80;;;4.50;;
4553;SDS011;2289;48.316;15.174;2023-07-13T12:39:52;6.90;;;4.83;;
4553;SDS011;2289;48.316;15.174;2023-07-13T12:42:22;5.97;;;4.67;;
4553;SDS011;2289;48.316;15.174;2023-07-13T12:44:56;7.20;;;5.20;;
4553;SDS011;2289;48.316;15.174;2023-07-13T12:47:27;4.37;;;4.00;;
4553;SDS011;2289;48.316;15.174;2023-07-13T12:49:57;6.60;;;4.70;;
4553;SDS011;2289;48.316;15.174;2023-07-13T12:52:30;6.20;;;5.50;;
4553;SDS011;2289;48.316;15.174;2023-07-13T12:55:05;8.50;;;4.50;;
4553;SDS011;2289;48.316;15.174;2023-07-13T12:57:43;5.17;;;4.73;;
4553;SDS011;2289;48.316;15.174;2023-07-13T13:00:20;6.97;;;4.50;;
4553;SDS011;2289;48.316;15.174;2023-07-13T13:02:53;5.10;;;4.00;;
4553;SDS011;2289;48.316;15.174;2023-07-13T13:05:41;9.47;;;4.53;;
4553;SDS011;2289;48.316;15.174;2023-07-13T13:08:12;4.30;;;3.67;;
4553;SDS011;2289;48.316;15.174;2023-07-13T13:10:43;8.10;;;4.90;;
4553;SDS011;2289;48.316;15.174;2023-07-13T13:13:12;6.90;;;3.93;;
4553;SDS011;2289;48.316;15.174;2023-07-13T13:15:42;8.87;;;5.03;;
4553;SDS011;2289;48.316;15.174;2023-07-13T13:18:15;6.60;;;4.27;;
4553;SDS011;2289;48.316;15.174;2023-07-13T13:20:45;6.00;;;4.77;;
4553;SDS011;2289;48.316;15.174;2023-07-13T13:23:17;3.90;;;3.50;;
4553;SDS011;2289;48.316;15.174;2023-07-13T13:25:49;6.70;;;4.23;;
4553;SDS011;2289;48.316;15.174;2023-07-13T13:28:19;5.97;;;4.17;;
4553;SDS011;2289;48.316;15.174;2023-07-13T13:30:50;5.87;;;4.40;;
4553;SDS011;2289;48.316;15.174;2023-07-13T13:33:20;4.30;;;3.77;;
4553;SDS011;2289;48.316;15.174;2023-07-13T13:35:50;3.70;;;3.40;;
4553;SDS011;2289;48.316;15.174;2023-07-13T13:38:19;5.23;;;4.27;;
4553;SDS011;2289;48.316;15.174;2023-07-13T13:40:51;5.73;;;4.10;;
4553;SDS011;2289;48.316;15.174;2023-07-13T13:43:22;3.40;;;3.10;;
4553;SDS011;2289;48.316;15.174;2023-07-13T13:45:53;5.10;;;3.73;;
4553;SDS011;2289;48.316;15.174;2023-07-13T13:48:29;7.50;;;4.30;;
4553;SDS011;2289;48.316;15.174;2023-07-13T13:50:59;6.70;;;4.23;;
4553;SDS011;2289;48.316;15.174;2023-07-13T13:53:29;5.53;;;4.37;;
4553;SDS011;2289;48.316;15.174;2023-07-13T13:55:59;6.10;;;3.17;;
4553;SDS011;2289;48.316;15.174;2023-07-13T13:58:28;6.43;;;3.30;;
4553;SDS011;2289;48.316;15.174;2023-07-13T14:00:58;4.20;;;3.23;;
4553;SDS011;2289;48.316;15.174;2023-07-13T14:03:27;4.97;;;4.10;;
4553;SDS011;2289;48.316;15.174;2023-07-13T14:05:56;7.90;;;3.53;;
4553;SDS011;2289;48.316;15.174;2023-07-13T14:08:26;6.27;;;3.73;;
4553;SDS011;2289;48.316;15.174;2023-07-13T14:10:56;4.50;;;3.80;;
4553;SDS011;2289;48.316;15.174;2023-07-13T14:13:31;5.00;;;3.43;;
4553;SDS011;2289;48.316;15.174;2023-07-13T14:16:04;5.77;;;4.43;;
4553;SDS011;2289;48.316;15.174;2023-07-13T14:18:38;5.10;;;4.60;;
4553;SDS011;2289;48.316;15.174;2023-07-13T14:21:17;5.50;;;4.00;;
4553;SDS011;2289;48.316;15.174;2023-07-13T14:23:47;4.27;;;3.27;;
4553;SDS011;2289;48.316;15.174;2023-07-13T14:26:17;3.50;;;3.20;;
4553;SDS011;2289;48.316;15.174;2023-07-13T14:28:50;9.37;;;4.43;;
4553;SDS011;2289;48.316;15.174;2023-07-13T14:31:20;9.50;;;4.30;;
4553;SDS011;2289;48.316;15.174;2023-07-13T14:33:56;6.13;;;4.10;;
4553;SDS011;2289;48.316;15.174;2023-07-13T14:36:27;7.50;;;4.37;;
4553;SDS011;2289;48.316;15.174;2023-07-13T14:38:57;5.83;;;3.40;;
4553;SDS011;2289;48.316;15.174;2023-07-13T14:41:26;3.50;;;3.20;;
4553;SDS011;2289;48.316;15.174;2023-07-13T14:43:57;4.70;;;4.00;;
4553;SDS011;2289;48.316;15.174;2023-07-13T14:46:28;3.50;;;3.13;;
4553;SDS011;2289;48.316;15.174;2023-07-13T14:49:00;5.63;;;3.80;;
4553;SDS011;2289;48.316;15.174;2023-07-13T14:51:30;4.50;;;3.67;;
4553;SDS011;2289;48.316;15.174;2023-07-13T14:54:02;6.47;;;3.30;;
4553;SDS011;2289;48.316;15.174;2023-07-13T14:56:32;4.83;;;3.57;;
4553;SDS011;2289;48.316;15.174;2023-07-13T14:59:02;5.03;;;3.80;;
4553;SDS011;2289;48.316;15.174;2023-07-13T15:01:31;3.73;;;3.43;;
4553;SDS011;2289;48.316;15.174;2023-07-13T15:04:00;3.93;;;3.67;;
4553;SDS011;2289;48.316;15.174;2023-07-13T15:06:53;3.33;;;3.03;;
4553;SDS011;2289;48.316;15.174;2023-07-13T15:09:21;4.33;;;3.60;;
4553;SDS011;2289;48.316;15.174;2023-07-13T15:11:54;4.60;;;3.67;;
4553;SDS011;2289;48.316;15.174;2023-07-13T15:14:24;4.07;;;3.17;;
4553;SDS011;2289;48.316;15.174;2023-07-13T15:16:59;4.40;;;3.00;;
4553;SDS011;2289;48.316;15.174;2023-07-13T15:19:28;6.17;;;3.47;;
4553;SDS011;2289;48.316;15.174;2023-07-13T15:21:57;6.97;;;4.03;;
4553;SDS011;2289;48.316;15.174;2023-07-13T15:24:27;5.80;;;4.13;;
4553;SDS011;2289;48.316;15.174;2023-07-13T15:26:56;7.13;;;3.90;;
4553;SDS011;2289;48.316;15.174;2023-07-13T15:29:27;3.30;;;3.00;;
4553;SDS011;2289;48.316;15.174;2023-07-13T15:31:56;6.30;;;3.43;;